createdAt,value
2022-08-24T00:00:10.526Z,101199.09
2022-08-24T00:02:42.058Z,101205.75
2022-08-24T00:05:14.992Z,101200.78
2022-08-24T00:07:47.161Z,101208.00
2022-08-24T00:10:20.425Z,101202.00
2022-08-24T00:12:52.346Z,101205.81
2022-08-24T00:15:24.689Z,101211.44
2022-08-24T00:17:55.991Z,101199.16
2022-08-24T00:20:27.552Z,101196.69
2022-08-24T00:22:58.993Z,101206.75
2022-08-24T00:25:31.346Z,101191.91
2022-08-24T00:28:04.756Z,101201.81
2022-08-24T00:30:36.292Z,101201.19
2022-08-24T00:33:08.232Z,101204.00
2022-08-24T00:35:39.739Z,101203.28
2022-08-24T00:38:11.610Z,101200.03
2022-08-24T00:40:46.350Z,101198.28
2022-08-24T00:43:23.960Z,101202.88
2022-08-24T00:46:19.910Z,101202.06
2022-08-24T00:49:01.444Z,101189.94
2022-08-24T00:51:41.232Z,101207.78
2022-08-24T00:54:15.338Z,101205.22
2022-08-24T00:56:54.073Z,101205.38
2022-08-24T00:59:32.625Z,101202.84
2022-08-24T01:02:15.586Z,101195.91
2022-08-24T01:05:09.004Z,101210.25
2022-08-24T01:07:40.745Z,101210.41
2022-08-24T01:10:14.919Z,101211.50
2022-08-24T01:13:00.348Z,101217.03
2022-08-24T01:15:38.181Z,101209.13
2022-08-24T01:18:34.581Z,101199.91
2022-08-24T01:21:16.364Z,101220.59
2022-08-24T01:23:51.226Z,101212.72
2022-08-24T01:26:39.820Z,101213.88
2022-08-24T01:29:18.451Z,101209.44
2022-08-24T01:31:51.639Z,101197.94
2022-08-24T01:34:23.011Z,101197.16
2022-08-24T01:36:56.652Z,101199.03
2022-08-24T01:39:39.062Z,101201.78
2022-08-24T01:42:10.975Z,101203.69
2022-08-24T01:44:44.114Z,101200.13
2022-08-24T01:47:16.834Z,101195.78
2022-08-24T01:49:49.457Z,101197.53
2022-08-24T01:52:25.408Z,101203.13
2022-08-24T01:54:56.661Z,101207.66
2022-08-24T01:57:27.993Z,101213.31
2022-08-24T01:59:59.386Z,101216.16
2022-08-24T02:02:31.740Z,101207.53
2022-08-24T02:05:04.149Z,101218.19
2022-08-24T02:07:35.708Z,101214.88
2022-08-24T02:10:09.561Z,101210.59
2022-08-24T02:12:42.541Z,101218.59
2022-08-24T02:15:14.056Z,101210.00
2022-08-24T02:17:45.471Z,101221.50
2022-08-24T02:20:16.887Z,101218.88
2022-08-24T02:22:50.353Z,101219.88
2022-08-24T02:25:21.885Z,101225.31
2022-08-24T02:27:53.206Z,101224.59
2022-08-24T02:30:24.506Z,101215.78
2022-08-24T02:32:56.123Z,101224.72
2022-08-24T02:35:29.524Z,101220.34
2022-08-24T02:38:01.047Z,101225.13
2022-08-24T02:40:32.457Z,101215.66
2022-08-24T02:43:04.658Z,101216.59
2022-08-24T02:45:41.355Z,101209.66
2022-08-24T02:48:13.300Z,101223.19
2022-08-24T02:50:47.442Z,101213.50
2022-08-24T02:53:20.711Z,101211.91
2022-08-24T02:55:52.020Z,101227.38
2022-08-24T02:58:23.334Z,101216.81
2022-08-24T03:00:54.713Z,101222.28
2022-08-24T03:03:26.068Z,101213.81
2022-08-24T03:05:57.380Z,101227.03
2022-08-24T03:08:29.299Z,101220.84
2022-08-24T03:11:00.795Z,101225.44
2022-08-24T03:13:32.677Z,101218.31
2022-08-24T03:16:05.342Z,101206.94
2022-08-24T03:18:37.057Z,101220.19
2022-08-24T03:21:08.630Z,101230.06
2022-08-24T03:23:40.187Z,101222.06
2022-08-24T03:26:12.388Z,101223.94
2022-08-24T03:28:45.093Z,101222.19
2022-08-24T03:31:17.382Z,101218.56
2022-08-24T03:33:50.102Z,101218.56
2022-08-24T03:36:21.625Z,101208.69
2022-08-24T03:38:53.156Z,101217.63
2022-08-24T03:41:24.534Z,101213.25
2022-08-24T03:43:56.783Z,101210.63
2022-08-24T03:46:28.858Z,101205.31
2022-08-24T03:49:00.234Z,101204.44
2022-08-24T03:51:31.719Z,101211.69
2022-08-24T03:54:05.288Z,101206.44
2022-08-24T03:56:37.036Z,101218.19
2022-08-24T03:59:10.540Z,101219.19
2022-08-24T04:01:41.891Z,101225.56
2022-08-24T04:04:13.303Z,101223.88
2022-08-24T04:06:46.731Z,101233.00
2022-08-24T04:09:18.687Z,101232.31
2022-08-24T04:11:52.545Z,101228.81
2022-08-24T04:14:27.295Z,101230.81
2022-08-24T04:16:59.176Z,101231.81
2022-08-24T04:19:30.611Z,101234.78
2022-08-24T04:22:01.934Z,101243.66
2022-08-24T04:24:33.269Z,101232.41
2022-08-24T04:27:04.838Z,101243.91
2022-08-24T04:29:36.146Z,101244.03
2022-08-24T04:32:07.652Z,101248.66
2022-08-24T04:34:39.273Z,101253.03
2022-08-24T04:37:11.670Z,101242.22
2022-08-24T04:39:44.487Z,101236.03
2022-08-24T04:42:17.697Z,101242.84
2022-08-24T04:44:50.352Z,101237.38
2022-08-24T04:47:21.640Z,101234.78
2022-08-24T04:49:52.970Z,101242.44
2022-08-24T04:52:24.414Z,101260.22
2022-08-24T04:54:55.796Z,101248.50
2022-08-24T04:57:27.086Z,101245.75
2022-08-24T04:59:59.115Z,101249.25
2022-08-24T05:02:32.227Z,101254.44
2022-08-24T05:05:08.616Z,101251.69
2022-08-24T05:10:11.410Z,101260.31
2022-08-24T05:12:43.409Z,101253.00
2022-08-24T05:15:16.240Z,101258.13
2022-08-24T05:17:51.218Z,101254.31
2022-08-24T05:20:22.945Z,101261.25
2022-08-24T05:22:56.034Z,101262.81
2022-08-24T05:25:28.742Z,101266.09
2022-08-24T05:28:00.670Z,101279.38
2022-08-24T05:30:32.332Z,101275.50
2022-08-24T05:33:03.912Z,101275.22
2022-08-24T05:35:39.736Z,101272.38
2022-08-24T05:38:15.273Z,101285.50
2022-08-24T05:40:46.601Z,101295.81
2022-08-24T05:43:17.887Z,101297.28
2022-08-24T05:45:49.276Z,101298.78
2022-08-24T05:48:20.974Z,101295.69
2022-08-24T05:50:53.986Z,101295.41
2022-08-24T05:53:25.317Z,101299.66
2022-08-24T05:55:56.738Z,101300.78
2022-08-24T05:58:31.196Z,101303.56
2022-08-24T06:01:14.856Z,101305.06
2022-08-24T06:03:47.257Z,101306.75
2022-08-24T06:06:20.499Z,101306.41
2022-08-24T06:08:55.129Z,101306.19
2022-08-24T06:11:32.967Z,101305.28
2022-08-24T06:14:09.349Z,101313.63
2022-08-24T06:16:46.326Z,101310.19
2022-08-24T06:19:19.442Z,101310.09
2022-08-24T06:21:52.520Z,101311.25
2022-08-24T06:24:44.525Z,101320.41
2022-08-24T06:27:22.885Z,101318.75
2022-08-24T06:29:55.894Z,101319.03
2022-08-24T06:32:27.329Z,101322.91
2022-08-24T06:34:58.813Z,101335.06
2022-08-24T06:37:30.369Z,101325.84
2022-08-24T06:40:03.146Z,101333.25
2022-08-24T06:42:34.597Z,101331.31
2022-08-24T06:45:06.454Z,101331.19
2022-08-24T06:47:37.873Z,101325.13
2022-08-24T06:50:09.661Z,101328.56
2022-08-24T06:52:40.976Z,101326.63
2022-08-24T06:55:14.633Z,101335.84
2022-08-24T06:57:49.196Z,101334.50
2022-08-24T07:00:23.875Z,101336.84
2022-08-24T07:02:55.217Z,101341.53
2022-08-24T07:05:27.201Z,101339.03
2022-08-24T07:07:59.808Z,101341.59
2022-08-24T07:10:31.334Z,101343.41
2022-08-24T07:13:03.872Z,101347.56
2022-08-24T07:15:35.565Z,101349.19
2022-08-24T07:18:10.304Z,101347.34
2022-08-24T07:20:42.654Z,101350.06
2022-08-24T07:23:14.864Z,101350.06
2022-08-24T07:25:49.568Z,101352.63
2022-08-24T07:28:31.574Z,101359.56
2022-08-24T07:31:03.779Z,101345.38
2022-08-24T07:33:36.040Z,101362.41
2022-08-24T07:36:07.445Z,101361.25
2022-08-24T07:38:39.866Z,101364.88
2022-08-24T07:41:37.843Z,101364.00
2022-08-24T07:44:02.644Z,101364.06
2022-08-24T07:46:34.132Z,101365.03
2022-08-24T07:49:12.602Z,101363.94
2022-08-24T07:51:53.316Z,101369.78
2022-08-24T07:54:24.629Z,101367.03
2022-08-24T07:56:56.453Z,101370.53
2022-08-24T07:59:27.768Z,101366.78
2022-08-24T08:01:59.711Z,101374.91
2022-08-24T08:04:32.170Z,101373.00
2022-08-24T08:07:03.502Z,101382.00
2022-08-24T08:09:37.770Z,101372.78
2022-08-24T08:12:09.309Z,101378.38
2022-08-24T08:14:40.610Z,101378.03
2022-08-24T08:17:13.224Z,101373.72
2022-08-24T08:19:44.626Z,101380.69
2022-08-24T08:22:34.536Z,101380.44
2022-08-24T08:25:07.972Z,101382.19
2022-08-24T08:27:39.410Z,101381.81
2022-08-24T08:30:11.176Z,101380.59
2022-08-24T08:32:42.668Z,101372.53
2022-08-24T08:35:14.236Z,101375.84
2022-08-24T08:37:46.139Z,101377.84
2022-08-24T08:40:55.249Z,101370.94
2022-08-24T08:43:44.942Z,101379.47
2022-08-24T08:46:30.260Z,101385.22
2022-08-24T08:49:48.061Z,101376.63
2022-08-24T08:52:48.543Z,101383.22
2022-08-24T08:55:32.034Z,101381.94
2022-08-24T08:58:28.344Z,101373.59
2022-08-24T09:01:41.102Z,101374.56
2022-08-24T09:04:42.554Z,101371.63
2022-08-24T09:07:28.935Z,101385.50
2022-08-24T09:10:17.506Z,101377.31
2022-08-24T09:13:38.213Z,101373.09
2022-08-24T09:16:46.135Z,101383.88
2022-08-24T09:19:23.286Z,101378.75
2022-08-24T09:22:20.026Z,101368.56
2022-08-24T09:24:54.085Z,101369.47
2022-08-24T09:27:51.788Z,101364.81
2022-08-24T09:30:26.691Z,101367.16
2022-08-24T09:33:04.322Z,101366.44
2022-08-24T09:36:07.842Z,101369.88
2022-08-24T09:38:59.368Z,101360.59
2022-08-24T09:41:42.584Z,101359.66
2022-08-24T09:44:51.077Z,101363.91
2022-08-24T09:48:04.121Z,101369.00
2022-08-24T09:51:07.266Z,101351.25
2022-08-24T09:53:56.024Z,101366.25
2022-08-24T09:57:11.718Z,101352.91
2022-08-24T09:59:43.962Z,101363.19
2022-08-24T10:02:45.556Z,101352.16
2022-08-24T10:05:54.491Z,101351.16
2022-08-24T10:08:28.776Z,101353.69
2022-08-24T10:11:19.680Z,101349.16
2022-08-24T10:14:09.437Z,101343.13
2022-08-24T10:17:10.347Z,101342.56
2022-08-24T10:20:05.747Z,101339.22
2022-08-24T10:23:05.844Z,101345.28
2022-08-24T10:25:46.813Z,101331.56
2022-08-24T10:28:36.859Z,101339.09
2022-08-24T10:31:31.611Z,101336.19
2022-08-24T10:34:46.558Z,101329.25
2022-08-24T10:38:15.738Z,101334.16
2022-08-24T10:41:15.230Z,101328.09
2022-08-24T10:44:22.603Z,101324.75
2022-08-24T10:47:00.225Z,101323.44
2022-08-24T10:49:34.565Z,101326.06
2022-08-24T10:52:47.762Z,101330.69
2022-08-24T10:55:30.750Z,101327.81
2022-08-24T10:58:04.805Z,101331.00
2022-08-24T11:00:36.868Z,101320.91
2022-08-24T11:03:12.340Z,101324.53
2022-08-24T11:05:49.832Z,101315.75
2022-08-24T11:08:28.001Z,101316.41
2022-08-24T11:11:11.153Z,101321.59
2022-08-24T11:14:19.319Z,101325.50
2022-08-24T11:16:55.724Z,101322.09
2022-08-24T11:19:35.415Z,101317.59
2022-08-24T11:22:27.979Z,101308.63
2022-08-24T11:25:04.769Z,101319.50
2022-08-24T11:27:45.854Z,101335.63
2022-08-24T11:30:20.205Z,101322.34
2022-08-24T11:33:02.114Z,101331.56
2022-08-24T11:35:33.418Z,101325.38
2022-08-24T11:38:25.875Z,101317.44
2022-08-24T11:41:09.781Z,101323.78
2022-08-24T11:44:00.522Z,101329.53
2022-08-24T11:46:53.521Z,101314.94
2022-08-24T11:49:42.450Z,101315.94
2022-08-24T11:52:42.622Z,101306.72
2022-08-24T11:55:47.032Z,101308.88
2022-08-24T11:58:34.369Z,101319.44
2022-08-24T12:01:15.481Z,101311.50
2022-08-24T12:04:11.789Z,101314.53
2022-08-24T12:06:55.737Z,101302.59
2022-08-24T12:09:40.377Z,101316.91
2022-08-24T12:12:24.564Z,101309.22
2022-08-24T12:15:01.788Z,101301.59
2022-08-24T12:17:39.977Z,101310.84
2022-08-24T12:20:29.457Z,101313.69
2022-08-24T12:23:07.595Z,101303.84
2022-08-24T12:25:59.356Z,101310.03
2022-08-24T12:28:54.616Z,101313.16
2022-08-24T12:31:43.395Z,101312.00
2022-08-24T12:34:23.626Z,101297.16
2022-08-24T12:37:10.775Z,101310.44
2022-08-24T12:40:11.100Z,101308.81
2022-08-24T12:42:54.565Z,101308.97
2022-08-24T12:45:26.422Z,101301.47
2022-08-24T12:48:16.145Z,101298.59
2022-08-24T12:51:06.998Z,101315.03
2022-08-24T12:54:07.587Z,101309.50
2022-08-24T12:57:02.666Z,101304.00
2022-08-24T12:59:57.724Z,101302.31
2022-08-24T13:02:59.007Z,101303.59
2022-08-24T13:05:46.533Z,101304.91
2022-08-24T13:08:31.855Z,101300.88
2022-08-24T13:11:08.211Z,101304.78
2022-08-24T13:14:04.016Z,101305.78
2022-08-24T13:16:56.849Z,101303.19
2022-08-24T13:19:33.948Z,101313.72
2022-08-24T13:22:11.236Z,101309.66
2022-08-24T13:24:48.373Z,101310.66
2022-08-24T13:27:19.627Z,101315.84
2022-08-24T13:30:08.383Z,101302.31
2022-08-24T13:32:46.184Z,101303.06
2022-08-24T13:35:53.608Z,101307.66
2022-08-24T13:38:33.930Z,101302.84
2022-08-24T13:41:15.797Z,101295.31
2022-08-24T13:44:14.702Z,101296.75
2022-08-24T13:47:08.098Z,101297.16
2022-08-24T13:50:02.000Z,101291.19
2022-08-24T13:53:04.517Z,101291.81
2022-08-24T13:55:53.272Z,101288.91
2022-08-24T13:58:52.658Z,101297.91
2022-08-24T14:01:38.979Z,101283.50
2022-08-24T14:04:25.657Z,101286.56
2022-08-24T14:07:09.116Z,101296.06
2022-08-24T14:10:06.152Z,101286.22
2022-08-24T14:12:49.949Z,101286.06
2022-08-24T14:15:39.906Z,101282.91
2022-08-24T14:18:22.283Z,101278.56
2022-08-24T14:21:12.109Z,101287.22
2022-08-24T14:24:00.703Z,101272.47
2022-08-24T14:26:36.726Z,101274.78
2022-08-24T14:29:19.854Z,101285.91
2022-08-24T14:32:08.621Z,101279.69
2022-08-24T14:34:51.449Z,101280.88
2022-08-24T14:37:34.088Z,101271.63
2022-08-24T14:40:29.595Z,101278.53
2022-08-24T14:43:43.894Z,101268.72
2022-08-24T14:46:33.617Z,101275.38
2022-08-24T14:49:08.263Z,101276.25
2022-08-24T14:52:19.105Z,101266.72
2022-08-24T14:55:12.075Z,101274.84
2022-08-24T14:58:02.945Z,101267.34
2022-08-24T15:00:54.654Z,101268.47
2022-08-24T15:04:03.806Z,101265.88
2022-08-24T15:06:49.132Z,101263.56
2022-08-24T15:09:27.353Z,101262.56
2022-08-24T15:12:12.086Z,101267.34
2022-08-24T15:14:58.278Z,101262.25
2022-08-24T15:17:45.369Z,101253.16
2022-08-24T15:20:32.503Z,101263.31
2022-08-24T15:23:19.369Z,101250.50
2022-08-24T15:26:11.227Z,101256.44
2022-08-24T15:28:55.282Z,101251.84
2022-08-24T15:31:29.108Z,101250.13
2022-08-24T15:34:02.726Z,101244.78
2022-08-24T15:36:34.328Z,101246.34
2022-08-24T15:39:06.264Z,101245.03
2022-08-24T15:41:41.748Z,101250.69
2022-08-24T15:44:27.979Z,101238.88
2022-08-24T15:47:02.820Z,101239.47
2022-08-24T15:49:45.026Z,101236.31
2022-08-24T15:52:44.082Z,101250.00
2022-08-24T15:55:37.988Z,101246.69
2022-08-24T15:58:27.614Z,101245.13
2022-08-24T16:01:30.077Z,101246.75
2022-08-24T16:04:07.387Z,101251.06
2022-08-24T16:06:49.814Z,101246.88
2022-08-24T16:09:21.066Z,101258.44
2022-08-24T16:12:32.695Z,101244.59
2022-08-24T16:15:30.428Z,101253.97
2022-08-24T16:18:01.879Z,101259.28
2022-08-24T16:20:34.188Z,101244.44
2022-08-24T16:23:12.671Z,101252.19
2022-08-24T16:25:51.089Z,101250.88
2022-08-24T16:28:22.610Z,101262.56
2022-08-24T16:31:07.068Z,101256.19
2022-08-24T16:33:45.432Z,101259.50
2022-08-24T16:36:18.938Z,101258.47
2022-08-24T16:38:51.297Z,101264.69
2022-08-24T16:41:24.240Z,101251.69
2022-08-24T16:43:55.568Z,101259.56
2022-08-24T16:46:26.924Z,101267.59
2022-08-24T16:48:58.905Z,101262.81
2022-08-24T16:51:30.235Z,101262.63
2022-08-24T16:54:01.720Z,101259.84
2022-08-24T16:56:33.453Z,101270.78
2022-08-24T16:59:04.801Z,101270.31
2022-08-24T17:01:36.129Z,101269.00
2022-08-24T17:04:07.603Z,101267.69
2022-08-24T17:06:39.083Z,101260.97
2022-08-24T17:09:11.076Z,101259.50
2022-08-24T17:11:42.505Z,101260.31
2022-08-24T17:14:15.141Z,101258.13
2022-08-24T17:16:46.919Z,101256.91
2022-08-24T17:19:20.453Z,101248.94
2022-08-24T17:21:51.761Z,101263.28
2022-08-24T17:24:23.697Z,101263.81
2022-08-24T17:26:55.670Z,101262.81
2022-08-24T17:29:27.319Z,101261.59
2022-08-24T17:31:59.177Z,101261.53
2022-08-24T17:34:32.078Z,101267.63
2022-08-24T17:37:03.732Z,101273.59
2022-08-24T17:39:35.513Z,101263.44
2022-08-24T17:42:21.022Z,101274.16
2022-08-24T17:44:58.730Z,101272.00
2022-08-24T17:47:30.116Z,101274.50
2022-08-24T17:50:06.058Z,101272.44
2022-08-24T17:52:38.736Z,101274.31
2022-08-24T17:55:12.442Z,101275.94
2022-08-24T17:57:48.285Z,101268.88
2022-08-24T18:00:20.398Z,101290.81
2022-08-24T18:02:51.790Z,101294.25
2022-08-24T18:05:23.173Z,101284.53
2022-08-24T18:07:55.577Z,101287.00
2022-08-24T18:10:29.456Z,101282.91
2022-08-24T18:13:03.355Z,101284.09
2022-08-24T18:15:36.346Z,101300.81
2022-08-24T18:18:09.428Z,101306.25
2022-08-24T18:20:41.720Z,101305.19
2022-08-24T18:23:13.095Z,101315.06
2022-08-24T18:25:51.221Z,101306.81
2022-08-24T18:28:24.213Z,101313.31
2022-08-24T18:30:56.297Z,101319.56
2022-08-24T18:33:27.599Z,101324.47
2022-08-24T18:35:59.079Z,101312.06
2022-08-24T18:38:30.389Z,101323.28
2022-08-24T18:41:02.002Z,101328.31
2022-08-24T18:43:33.496Z,101326.38
2022-08-24T18:46:05.850Z,101335.00
2022-08-24T18:48:37.386Z,101331.22
2022-08-24T18:51:10.317Z,101333.59
2022-08-24T18:53:41.879Z,101339.47
2022-08-24T18:56:13.188Z,101349.91
2022-08-24T18:58:44.498Z,101336.84
2022-08-24T19:01:16.097Z,101341.94
2022-08-24T19:03:48.648Z,101346.06
2022-08-24T19:06:20.051Z,101341.38
2022-08-24T19:08:51.383Z,101339.06
2022-08-24T19:11:23.977Z,101346.78
2022-08-24T19:13:55.274Z,101340.03
2022-08-24T19:16:32.127Z,101346.75
2022-08-24T19:19:04.954Z,101336.28
2022-08-24T19:21:37.073Z,101347.47
2022-08-24T19:24:08.858Z,101351.47
2022-08-24T19:26:40.442Z,101341.31
2022-08-24T19:29:11.892Z,101351.22
2022-08-24T19:31:43.342Z,101346.41
2022-08-24T19:34:14.864Z,101356.38
2022-08-24T19:36:46.571Z,101353.41
2022-08-24T19:39:18.250Z,101347.50
2022-08-24T19:41:54.916Z,101361.19
2022-08-24T19:44:51.794Z,101350.72
2022-08-24T19:47:24.121Z,101357.31
2022-08-24T19:49:55.502Z,101358.59
2022-08-24T19:52:30.993Z,101355.22
2022-08-24T19:55:03.981Z,101353.75
2022-08-24T19:57:42.051Z,101348.59
2022-08-24T20:00:21.373Z,101344.44
2022-08-24T20:02:55.834Z,101355.59
2022-08-24T20:05:28.353Z,101347.06
2022-08-24T20:08:00.586Z,101361.78
2022-08-24T20:10:33.876Z,101359.38
2022-08-24T20:13:05.280Z,101369.66
2022-08-24T20:15:36.839Z,101367.31
2022-08-24T20:18:08.176Z,101367.44
2022-08-24T20:20:39.481Z,101370.53
2022-08-24T20:23:10.793Z,101377.88
2022-08-24T20:25:42.135Z,101383.47
2022-08-24T20:28:33.683Z,101368.56
2022-08-24T20:31:08.164Z,101367.28
2022-08-24T20:33:39.549Z,101383.56
2022-08-24T20:36:43.212Z,101381.97
2022-08-24T20:39:18.012Z,101376.03
2022-08-24T20:41:49.960Z,101381.84
2022-08-24T20:44:22.054Z,101374.84
2022-08-24T20:46:55.004Z,101373.47
2022-08-24T20:49:26.996Z,101375.59
2022-08-24T20:52:00.284Z,101381.88
2022-08-24T20:54:31.726Z,101375.78
2022-08-24T20:57:04.856Z,101372.47
2022-08-24T20:59:36.234Z,101377.88
2022-08-24T21:02:07.764Z,101380.94
2022-08-24T21:04:39.087Z,101380.25
2022-08-24T21:07:12.146Z,101377.56
2022-08-24T21:09:43.446Z,101374.34
2022-08-24T21:12:15.878Z,101387.09
2022-08-24T21:14:47.272Z,101380.28
2022-08-24T21:17:19.196Z,101369.22
2022-08-24T21:19:50.680Z,101387.44
2022-08-24T21:22:22.050Z,101382.75
2022-08-24T21:24:53.346Z,101383.97
2022-08-24T21:27:24.894Z,101381.09
2022-08-24T21:29:56.426Z,101380.38
2022-08-24T21:32:46.058Z,101384.38
2022-08-24T21:35:17.440Z,101386.66
2022-08-24T21:37:50.067Z,101376.50
2022-08-24T21:40:21.842Z,101376.69
2022-08-24T21:42:53.334Z,101391.16
2022-08-24T21:45:25.444Z,101387.81
2022-08-24T21:47:56.741Z,101392.50
2022-08-24T21:50:28.493Z,101384.63
2022-08-24T21:52:59.946Z,101383.03
2022-08-24T21:55:31.410Z,101394.72
2022-08-24T21:58:02.923Z,101398.47
2022-08-24T22:00:35.539Z,101394.09
2022-08-24T22:03:08.533Z,101391.56
2022-08-24T22:05:40.347Z,101398.81
2022-08-24T22:08:11.795Z,101394.38
2022-08-24T22:10:43.216Z,101391.13
2022-08-24T22:13:16.121Z,101396.38
2022-08-24T22:15:47.468Z,101391.13
2022-08-24T22:18:18.824Z,101369.47
2022-08-24T22:20:50.134Z,101383.59
2022-08-24T22:23:21.524Z,101394.31
2022-08-24T22:25:54.001Z,101390.91
2022-08-24T22:28:25.328Z,101378.69
2022-08-24T22:30:56.802Z,101385.03
2022-08-24T22:33:28.619Z,101371.94
2022-08-24T22:35:59.933Z,101388.06
2022-08-24T22:38:31.239Z,101380.13
2022-08-24T22:41:02.802Z,101375.03
2022-08-24T22:43:52.896Z,101375.19
2022-08-24T22:46:25.965Z,101366.47
2022-08-24T22:48:57.450Z,101360.59
2022-08-24T22:51:29.454Z,101375.66
2022-08-24T22:54:01.012Z,101372.19
2022-08-24T22:56:35.814Z,101372.25
2022-08-24T22:59:08.610Z,101372.47
2022-08-24T23:01:41.813Z,101373.28
2022-08-24T23:04:17.758Z,101376.09
2022-08-24T23:06:49.678Z,101375.31
2022-08-24T23:09:21.662Z,101380.78
2022-08-24T23:11:53.573Z,101382.69
2022-08-24T23:14:25.306Z,101373.94
2022-08-24T23:16:56.665Z,101381.97
2022-08-24T23:19:47.212Z,101380.22
2022-08-24T23:22:19.888Z,101374.25
2022-08-24T23:24:51.223Z,101383.22
2022-08-24T23:27:22.934Z,101369.19
2022-08-24T23:29:54.724Z,101377.34
2022-08-24T23:32:27.208Z,101383.63
2022-08-24T23:34:58.879Z,101378.59
2022-08-24T23:37:30.529Z,101379.56
2022-08-24T23:40:02.118Z,101386.69
2022-08-24T23:42:33.538Z,101384.16
2022-08-24T23:45:05.947Z,101377.97
2022-08-24T23:47:40.738Z,101376.22
2022-08-24T23:50:12.073Z,101385.59
2022-08-24T23:52:43.446Z,101368.91
2022-08-24T23:55:20.101Z,101380.56
2022-08-24T23:57:52.867Z,101375.25
